BONE10 PAEI-PAED
Flight info
| Callsign | BONE10 |
|---|---|
| Flight time | 0h 42m |
| Altitude | 26000 |
| Route | RUNDY1 BIG CRUZR |
| Aircraft | B1/H-DFHIRTUVWXY/LB1 |
Departure
| Time | 2026-04-21 22:30 |
|---|---|
| Airport | Eielson Air Force Base (PAEI) |
Arrival
| Time | 2026-04-21 23:12 |
|---|---|
| Airport | Elmendorf Air Force Base (PAED) |
| Time | Latitude | Longitude | Altitude | Speed | Heading |
|---|---|---|---|---|---|
| 2026-04-21 22:10 | 64.67086 | -147.09913 | 551 ft | 0 kts | 99° |
| 2026-04-21 22:25 | 64.67094 | -147.09856 | 560 ft | 3 kts | 44° |
| 2026-04-21 22:26 | 64.67158 | -147.09835 | 567 ft | 16 kts | 349° |
| 2026-04-21 22:26 | 64.67287 | -147.09951 | 562 ft | 23 kts | 336° |
| 2026-04-21 22:26 | 64.67478 | -147.10073 | 567 ft | 33 kts | 354° |
| 2026-04-21 22:26 | 64.67683 | -147.10299 | 563 ft | 32 kts | 331° |
| 2026-04-21 22:27 | 64.67889 | -147.10459 | 564 ft | 31 kts | 343° |
| 2026-04-21 22:27 | 64.68087 | -147.10643 | 563 ft | 30 kts | 337° |
| 2026-04-21 22:27 | 64.68280 | -147.10806 | 567 ft | 29 kts | 339° |
| 2026-04-21 22:27 | 64.68436 | -147.10953 | 569 ft | 20 kts | 328° |
| 2026-04-21 22:28 | 64.68483 | -147.11203 | 562 ft | 17 kts | 255° |
| 2026-04-21 22:28 | 64.68444 | -147.11482 | 559 ft | 19 kts | 249° |
| 2026-04-21 22:28 | 64.68378 | -147.11728 | 566 ft | 14 kts | 192° |
| 2026-04-21 22:28 | 64.68352 | -147.11721 | 557 ft | 0 kts | 163° |
| 2026-04-21 22:29 | 64.68207 | -147.11600 | 559 ft | 59 kts | 159° |
| 2026-04-21 22:29 | 64.67553 | -147.11026 | 561 ft | 140 kts | 160° |
| 2026-04-21 22:30 | 64.66457 | -147.09949 | 825 ft | 188 kts | 160° |
| 2026-04-21 22:30 | 64.65139 | -147.08497 | 1635 ft | 229 kts | 157° |
| 2026-04-21 22:30 | 64.63654 | -147.06781 | 3039 ft | 246 kts | 157° |
| 2026-04-21 22:30 | 64.62126 | -147.05172 | 5006 ft | 231 kts | 165° |
| 2026-04-21 22:31 | 64.60721 | -147.03755 | 7098 ft | 211 kts | 165° |
| 2026-04-21 22:31 | 64.59367 | -147.02400 | 8778 ft | 218 kts | 165° |
| 2026-04-21 22:31 | 64.57909 | -147.00936 | 10250 ft | 236 kts | 163° |
| 2026-04-21 22:31 | 64.56375 | -146.99344 | 11640 ft | 249 kts | 162° |
| 2026-04-21 22:32 | 64.54790 | -146.97623 | 13241 ft | 254 kts | 159° |
| 2026-04-21 22:32 | 64.53261 | -146.95460 | 14731 ft | 261 kts | 151° |
| 2026-04-21 22:32 | 64.51842 | -146.92528 | 15781 ft | 284 kts | 141° |
| 2026-04-21 22:32 | 64.50383 | -146.89218 | 16634 ft | 304 kts | 141° |
| 2026-04-21 22:33 | 64.48840 | -146.85674 | 17633 ft | 316 kts | 140° |
| 2026-04-21 22:33 | 64.47292 | -146.82051 | 18818 ft | 321 kts | 139° |
| 2026-04-21 22:33 | 64.45714 | -146.78318 | 20061 ft | 323 kts | 139° |
| 2026-04-21 22:33 | 64.44146 | -146.74590 | 21231 ft | 328 kts | 139° |
| 2026-04-21 22:34 | 64.42517 | -146.70712 | 22146 ft | 343 kts | 139° |
| 2026-04-21 22:34 | 64.40816 | -146.66665 | 22952 ft | 363 kts | 138° |
| 2026-04-21 22:34 | 64.39007 | -146.62375 | 24011 ft | 376 kts | 138° |
| 2026-04-21 22:34 | 64.37172 | -146.58015 | 25359 ft | 376 kts | 137° |
| 2026-04-21 22:35 | 64.35380 | -146.53744 | 26756 ft | 379 kts | 137° |
| 2026-04-21 22:35 | 64.33402 | -146.49034 | 26440 ft | 433 kts | 137° |
| 2026-04-21 22:35 | 64.31172 | -146.43694 | 26163 ft | 484 kts | 136° |
| 2026-04-21 22:35 | 64.28835 | -146.38080 | 26092 ft | 485 kts | 136° |
| 2026-04-21 22:36 | 64.24157 | -146.26947 | 26038 ft | 483 kts | 137° |
| 2026-04-21 22:36 | 64.21791 | -146.21383 | 26027 ft | 487 kts | 137° |
| 2026-04-21 22:36 | 64.19445 | -146.15890 | 26020 ft | 484 kts | 137° |
| 2026-04-21 22:37 | 64.17083 | -146.10378 | 26017 ft | 485 kts | 137° |
| 2026-04-21 22:37 | 64.14713 | -146.04847 | 26011 ft | 484 kts | 137° |
| 2026-04-21 22:37 | 64.12366 | -145.99370 | 26011 ft | 484 kts | 137° |
| 2026-04-21 22:37 | 64.09993 | -145.93835 | 26014 ft | 486 kts | 137° |
| 2026-04-21 22:38 | 64.07623 | -145.88314 | 26001 ft | 484 kts | 137° |
| 2026-04-21 22:38 | 64.05287 | -145.82887 | 26000 ft | 484 kts | 137° |
| 2026-04-21 22:38 | 64.02896 | -145.77398 | 25997 ft | 483 kts | 140° |
| 2026-04-21 22:38 | 64.00082 | -145.73458 | 26006 ft | 471 kts | 168° |
| 2026-04-21 22:39 | 63.96925 | -145.73190 | 26060 ft | 454 kts | 199° |
| 2026-04-21 22:39 | 63.94237 | -145.76558 | 26088 ft | 436 kts | 230° |
| 2026-04-21 22:39 | 63.92409 | -145.81933 | 26085 ft | 435 kts | 238° |
| 2026-04-21 22:39 | 63.90613 | -145.87460 | 26047 ft | 432 kts | 235° |
| 2026-04-21 22:40 | 63.88684 | -145.92763 | 26025 ft | 435 kts | 232° |
| 2026-04-21 22:40 | 63.86671 | -145.97785 | 26006 ft | 435 kts | 230° |
| 2026-04-21 22:40 | 63.84439 | -146.02475 | 26008 ft | 436 kts | 225° |
| 2026-04-21 22:40 | 63.82205 | -146.07054 | 26011 ft | 437 kts | 226° |
| 2026-04-21 22:41 | 63.79930 | -146.11629 | 26012 ft | 436 kts | 225° |
| 2026-04-21 22:41 | 63.77627 | -146.16208 | 26021 ft | 438 kts | 225° |
| 2026-04-21 22:41 | 63.75354 | -146.20679 | 26021 ft | 437 kts | 225° |
| 2026-04-21 22:41 | 63.73050 | -146.25181 | 26018 ft | 437 kts | 225° |
| 2026-04-21 22:42 | 63.70737 | -146.29682 | 26017 ft | 438 kts | 225° |
| 2026-04-21 22:42 | 63.68431 | -146.34165 | 26015 ft | 437 kts | 225° |
| 2026-04-21 22:42 | 63.66150 | -146.38589 | 26015 ft | 437 kts | 225° |
| 2026-04-21 22:42 | 63.63823 | -146.43066 | 26010 ft | 438 kts | 224° |
| 2026-04-21 22:43 | 63.61510 | -146.47481 | 26008 ft | 438 kts | 224° |
| 2026-04-21 22:43 | 63.59169 | -146.51917 | 26001 ft | 438 kts | 224° |
| 2026-04-21 22:43 | 63.56854 | -146.56285 | 25995 ft | 438 kts | 224° |
| 2026-04-21 22:43 | 63.54515 | -146.60699 | 25985 ft | 437 kts | 224° |
| 2026-04-21 22:44 | 63.52176 | -146.65119 | 25994 ft | 438 kts | 224° |
| 2026-04-21 22:44 | 63.49876 | -146.69471 | 25998 ft | 438 kts | 224° |
| 2026-04-21 22:44 | 63.48324 | -146.72403 | 25990 ft | 438 kts | 224° |
| 2026-04-21 22:44 | 63.45218 | -146.78268 | 25977 ft | 437 kts | 224° |
| 2026-04-21 22:45 | 63.43668 | -146.81188 | 25971 ft | 437 kts | 224° |
| 2026-04-21 22:45 | 63.40571 | -146.86998 | 25983 ft | 438 kts | 224° |
| 2026-04-21 22:45 | 63.38231 | -146.91367 | 25985 ft | 437 kts | 224° |
| 2026-04-21 22:45 | 63.36677 | -146.94258 | 25987 ft | 437 kts | 224° |
| 2026-04-21 22:46 | 63.34330 | -146.98616 | 25992 ft | 438 kts | 224° |
| 2026-04-21 22:46 | 63.31992 | -147.02951 | 25985 ft | 438 kts | 224° |
| 2026-04-21 22:46 | 63.29649 | -147.07289 | 25973 ft | 437 kts | 224° |
| 2026-04-21 22:46 | 63.27305 | -147.11625 | 25969 ft | 437 kts | 224° |
| 2026-04-21 22:47 | 63.24997 | -147.15889 | 25965 ft | 438 kts | 224° |
| 2026-04-21 22:47 | 63.22639 | -147.20239 | 25965 ft | 438 kts | 224° |
| 2026-04-21 22:47 | 63.20297 | -147.24544 | 25968 ft | 437 kts | 224° |
| 2026-04-21 22:47 | 63.17943 | -147.28860 | 25966 ft | 438 kts | 224° |
| 2026-04-21 22:48 | 63.15593 | -147.33159 | 25968 ft | 438 kts | 223° |
| 2026-04-21 22:48 | 63.13271 | -147.37394 | 25967 ft | 438 kts | 223° |
| 2026-04-21 22:48 | 63.10917 | -147.41676 | 25963 ft | 438 kts | 223° |
| 2026-04-21 22:48 | 63.08552 | -147.45974 | 25964 ft | 438 kts | 223° |
| 2026-04-21 22:49 | 63.06191 | -147.50253 | 25964 ft | 438 kts | 223° |
| 2026-04-21 22:49 | 63.03848 | -147.54496 | 25957 ft | 439 kts | 223° |
| 2026-04-21 22:49 | 63.01481 | -147.58772 | 25944 ft | 438 kts | 223° |
| 2026-04-21 22:49 | 62.99115 | -147.63037 | 25954 ft | 438 kts | 223° |
| 2026-04-21 22:50 | 62.96782 | -147.67234 | 25966 ft | 439 kts | 223° |
| 2026-04-21 22:50 | 62.94413 | -147.71483 | 25956 ft | 439 kts | 223° |
| 2026-04-21 22:50 | 62.92039 | -147.75731 | 25961 ft | 438 kts | 223° |
| 2026-04-21 22:50 | 62.89671 | -147.79958 | 25958 ft | 439 kts | 223° |
| 2026-04-21 22:51 | 62.87296 | -147.84193 | 25960 ft | 439 kts | 223° |
| 2026-04-21 22:51 | 62.84948 | -147.88369 | 25962 ft | 439 kts | 223° |
| 2026-04-21 22:51 | 62.82571 | -147.92587 | 25962 ft | 439 kts | 223° |
| 2026-04-21 22:51 | 62.80188 | -147.96808 | 25955 ft | 439 kts | 223° |
| 2026-04-21 22:52 | 62.77804 | -148.01021 | 25965 ft | 439 kts | 222° |
| 2026-04-21 22:52 | 62.75446 | -148.05179 | 25957 ft | 439 kts | 222° |
| 2026-04-21 22:52 | 62.73062 | -148.09373 | 25961 ft | 439 kts | 222° |
| 2026-04-21 22:52 | 62.70670 | -148.13576 | 25956 ft | 439 kts | 222° |
| 2026-04-21 22:53 | 62.68312 | -148.17708 | 25969 ft | 440 kts | 222° |
| 2026-04-21 22:53 | 62.65913 | -148.21903 | 25973 ft | 440 kts | 222° |
| 2026-04-21 22:53 | 62.63551 | -148.26022 | 25969 ft | 440 kts | 222° |
| 2026-04-21 22:53 | 62.61157 | -148.30189 | 25979 ft | 440 kts | 222° |
| 2026-04-21 22:54 | 62.58758 | -148.34359 | 25985 ft | 441 kts | 222° |
| 2026-04-21 22:54 | 62.56356 | -148.38524 | 25977 ft | 440 kts | 221° |
| 2026-04-21 22:54 | 62.53982 | -148.42628 | 25974 ft | 440 kts | 221° |
| 2026-04-21 22:54 | 62.51579 | -148.46776 | 25976 ft | 441 kts | 221° |
| 2026-04-21 22:55 | 62.49167 | -148.50934 | 25974 ft | 441 kts | 221° |
| 2026-04-21 22:55 | 62.46784 | -148.55031 | 25216 ft | 434 kts | 221° |
| 2026-04-21 22:55 | 62.44447 | -148.59040 | 24480 ft | 432 kts | 221° |
| 2026-04-21 22:55 | 62.42112 | -148.63036 | 23754 ft | 423 kts | 221° |
| 2026-04-21 22:56 | 62.39799 | -148.66987 | 22918 ft | 418 kts | 221° |
| 2026-04-21 22:56 | 62.37555 | -148.70814 | 22078 ft | 414 kts | 221° |
| 2026-04-21 22:56 | 62.35309 | -148.74635 | 21251 ft | 405 kts | 221° |
| 2026-04-21 22:56 | 62.33127 | -148.78342 | 20472 ft | 402 kts | 220° |
| 2026-04-21 22:57 | 62.30886 | -148.81882 | 19697 ft | 396 kts | 218° |
| 2026-04-21 22:57 | 62.28668 | -148.85382 | 18937 ft | 389 kts | 219° |
| 2026-04-21 22:57 | 62.26517 | -148.88791 | 18184 ft | 386 kts | 219° |
| 2026-04-21 22:57 | 62.24368 | -148.92199 | 17340 ft | 379 kts | 219° |
| 2026-04-21 22:58 | 62.22271 | -148.95519 | 16516 ft | 377 kts | 219° |
| 2026-04-21 22:58 | 62.20170 | -148.98840 | 15701 ft | 372 kts | 219° |
| 2026-04-21 22:58 | 62.18091 | -149.02113 | 14908 ft | 369 kts | 218° |
| 2026-04-21 22:58 | 62.16021 | -149.05363 | 14140 ft | 365 kts | 218° |
| 2026-04-21 22:59 | 62.14003 | -149.08522 | 13353 ft | 361 kts | 218° |
| 2026-04-21 22:59 | 62.11978 | -149.11684 | 12492 ft | 354 kts | 218° |
| 2026-04-21 22:59 | 62.10019 | -149.14734 | 12168 ft | 356 kts | 217° |
| 2026-04-21 22:59 | 62.08032 | -149.17826 | 12085 ft | 356 kts | 217° |
| 2026-04-21 23:00 | 62.06043 | -149.20923 | 12060 ft | 355 kts | 217° |
| 2026-04-21 23:00 | 62.04077 | -149.23980 | 12051 ft | 355 kts | 217° |
| 2026-04-21 23:00 | 62.02086 | -149.27070 | 12034 ft | 354 kts | 217° |
| 2026-04-21 23:00 | 62.00089 | -149.30169 | 12047 ft | 353 kts | 217° |
| 2026-04-21 23:01 | 61.98122 | -149.33216 | 12019 ft | 353 kts | 217° |
| 2026-04-21 23:01 | 61.96128 | -149.36294 | 12017 ft | 352 kts | 217° |
| 2026-04-21 23:01 | 61.94156 | -149.39331 | 12014 ft | 350 kts | 217° |
| 2026-04-21 23:01 | 61.92155 | -149.42413 | 12025 ft | 350 kts | 217° |
| 2026-04-21 23:02 | 61.90158 | -149.45476 | 12025 ft | 350 kts | 216° |
| 2026-04-21 23:02 | 61.88180 | -149.48508 | 12024 ft | 353 kts | 216° |
| 2026-04-21 23:02 | 61.86175 | -149.51579 | 12028 ft | 354 kts | 216° |
| 2026-04-21 23:02 | 61.84179 | -149.54629 | 12023 ft | 356 kts | 217° |
| 2026-04-21 23:03 | 61.82195 | -149.57657 | 11500 ft | 355 kts | 216° |
| 2026-04-21 23:03 | 61.80214 | -149.60677 | 10699 ft | 345 kts | 216° |
| 2026-04-21 23:03 | 61.78270 | -149.63636 | 9931 ft | 343 kts | 216° |
| 2026-04-21 23:03 | 61.76379 | -149.66511 | 9110 ft | 332 kts | 216° |
| 2026-04-21 23:04 | 61.74532 | -149.69311 | 8458 ft | 317 kts | 216° |
| 2026-04-21 23:04 | 61.72799 | -149.71934 | 8207 ft | 295 kts | 216° |
| 2026-04-21 23:04 | 61.71204 | -149.74344 | 8100 ft | 272 kts | 216° |
| 2026-04-21 23:04 | 61.69709 | -149.76600 | 8052 ft | 257 kts | 216° |
| 2026-04-21 23:05 | 61.68257 | -149.78791 | 8040 ft | 259 kts | 216° |
| 2026-04-21 23:05 | 61.66788 | -149.81004 | 8039 ft | 260 kts | 216° |
| 2026-04-21 23:05 | 61.65310 | -149.83230 | 7818 ft | 263 kts | 216° |
| 2026-04-21 23:05 | 61.63859 | -149.85410 | 7461 ft | 259 kts | 216° |
| 2026-04-21 23:06 | 61.62352 | -149.87573 | 7704 ft | 260 kts | 213° |
| 2026-04-21 23:06 | 61.60860 | -149.89513 | 7654 ft | 269 kts | 212° |
| 2026-04-21 23:06 | 61.59246 | -149.91546 | 7059 ft | 270 kts | 211° |
| 2026-04-21 23:06 | 61.57596 | -149.93444 | 6532 ft | 266 kts | 206° |
| 2026-04-21 23:07 | 61.55965 | -149.95013 | 6294 ft | 253 kts | 203° |
| 2026-04-21 23:07 | 61.54349 | -149.96364 | 6208 ft | 250 kts | 200° |
| 2026-04-21 23:07 | 61.52698 | -149.97562 | 6295 ft | 252 kts | 198° |
| 2026-04-21 23:07 | 61.51019 | -149.98594 | 6721 ft | 246 kts | 195° |
| 2026-04-21 23:08 | 61.49278 | -149.99481 | 6302 ft | 263 kts | 192° |
| 2026-04-21 23:08 | 61.47543 | -150.00094 | 5512 ft | 257 kts | 184° |
| 2026-04-21 23:08 | 61.45851 | -149.99654 | 4911 ft | 229 kts | 168° |
| 2026-04-21 23:08 | 61.44348 | -149.98528 | 4101 ft | 230 kts | 154° |
| 2026-04-21 23:09 | 61.42952 | -149.97032 | 3321 ft | 227 kts | 154° |
| 2026-04-21 23:09 | 61.41551 | -149.95522 | 2530 ft | 232 kts | 154° |
| 2026-04-21 23:09 | 61.40027 | -149.93840 | 2226 ft | 247 kts | 153° |
| 2026-04-21 23:09 | 61.38511 | -149.92117 | 2107 ft | 253 kts | 152° |
| 2026-04-21 23:10 | 61.36963 | -149.90338 | 2047 ft | 253 kts | 152° |
| 2026-04-21 23:10 | 61.35444 | -149.88470 | 2022 ft | 252 kts | 152° |
| 2026-04-21 23:10 | 61.33927 | -149.86717 | 2011 ft | 252 kts | 153° |
| 2026-04-21 23:10 | 61.32366 | -149.84919 | 1672 ft | 261 kts | 152° |
| 2026-04-21 23:11 | 61.30748 | -149.83040 | 1292 ft | 268 kts | 152° |
| 2026-04-21 23:11 | 61.29153 | -149.81130 | 1242 ft | 262 kts | 150° |
| 2026-04-21 23:11 | 61.27734 | -149.79370 | 1026 ft | 214 kts | 158° |
| 2026-04-21 23:11 | 61.26371 | -149.79073 | 439 ft | 194 kts | 189° |
| 2026-04-21 23:12 | 61.25221 | -149.79345 | 217 ft | 119 kts | 178° |
| 2026-04-21 23:12 | 61.24863 | -149.79360 | 214 ft | 7 kts | 179° |
| 2026-04-21 23:12 | 61.24819 | -149.79362 | 218 ft | 6 kts | 182° |
| 2026-04-21 23:12 | 61.24780 | -149.79358 | 217 ft | 5 kts | 176° |
| 2026-04-21 23:13 | 61.24746 | -149.79352 | 216 ft | 5 kts | 175° |
| 2026-04-21 23:13 | 61.24714 | -149.79350 | 211 ft | 5 kts | 178° |
| 2026-04-21 23:13 | 61.24678 | -149.79349 | 216 ft | 6 kts | 179° |
| 2026-04-21 23:13 | 61.24637 | -149.79349 | 213 ft | 6 kts | 182° |
| 2026-04-21 23:14 | 61.24567 | -149.79360 | 206 ft | 12 kts | 191° |
| 2026-04-21 23:14 | 61.24523 | -149.79440 | 205 ft | 7 kts | 244° |
| 2026-04-21 23:14 | 61.24500 | -149.79510 | 213 ft | 0 kts | 216° |
| 2026-04-21 23:16 | 61.24476 | -149.79520 | 213 ft | 9 kts | 179° |
| 2026-04-21 23:17 | 61.24438 | -149.79405 | 209 ft | 11 kts | 92° |
| 2026-04-21 23:17 | 61.24417 | -149.79208 | 208 ft | 19 kts | 118° |
| 2026-04-21 23:17 | 61.24349 | -149.78947 | 213 ft | 18 kts | 114° |
| 2026-04-21 23:17 | 61.24346 | -149.78734 | 208 ft | 11 kts | 59° |
| 2026-04-21 23:18 | 61.24388 | -149.78661 | 207 ft | 5 kts | 9° |
| 2026-04-21 23:18 | 61.24404 | -149.78659 | 208 ft | 0 kts | 359° |
| 2026-04-21 23:20 | 61.24445 | -149.78660 | 210 ft | 12 kts | 359° |
| 2026-04-21 23:20 | 61.24576 | -149.78662 | 209 ft | 26 kts | 2° |
| 2026-04-21 23:21 | 61.24785 | -149.78661 | 209 ft | 31 kts | 358° |
| 2026-04-21 23:21 | 61.24995 | -149.78653 | 211 ft | 29 kts | 358° |
| 2026-04-21 23:21 | 61.25193 | -149.78668 | 217 ft | 27 kts | 2° |
| 2026-04-21 23:21 | 61.25366 | -149.78635 | 219 ft | 20 kts | 342° |
| 2026-04-21 23:22 | 61.25453 | -149.78767 | 215 ft | 12 kts | 335° |
| 2026-04-21 23:22 | 61.25507 | -149.78791 | 214 ft | 1 kts | 37° |
| 2026-04-21 23:22 | 61.25508 | -149.78789 | 214 ft | 0 kts | 43° |
| 2026-04-21 23:24 | 61.25514 | -149.78786 | 214 ft | 1 kts | 359° |
| 2026-04-21 23:24 | 61.25530 | -149.78842 | 218 ft | 14 kts | 287° |
| 2026-04-21 23:24 | 61.25529 | -149.79142 | 220 ft | 26 kts | 257° |
| 2026-04-21 23:25 | 61.25499 | -149.79521 | 223 ft | 27 kts | 260° |
| 2026-04-21 23:25 | 61.25470 | -149.79838 | 218 ft | 0 kts | 262° |
| 2026-04-21 23:25 | 61.25470 | -149.79839 | 218 ft | 0 kts | 262° |
| 2026-04-21 23:25 | 61.25470 | -149.79842 | 218 ft | 0 kts | 262° |
| 2026-04-21 23:26 | 61.25470 | -149.79847 | 217 ft | 0 kts | 262° |
| 2026-04-21 23:26 | 61.25469 | -149.79855 | 216 ft | 1 kts | 262° |
| 2026-04-21 23:26 | 61.25469 | -149.79864 | 214 ft | 1 kts | 262° |
| 2026-04-21 23:26 | 61.25464 | -149.79935 | 213 ft | 15 kts | 261° |
| 2026-04-21 23:27 | 61.25436 | -149.80263 | 215 ft | 28 kts | 260° |
| 2026-04-21 23:27 | 61.25405 | -149.80633 | 209 ft | 2 kts | 263° |
| 2026-04-21 23:27 | 61.25404 | -149.80638 | 209 ft | 3 kts | 256° |
| 2026-04-21 23:27 | 61.25399 | -149.80679 | 217 ft | 0 kts | 259° |